sensor_id;sensor_type;location;lat;lon;timestamp;pressure;altitude;pressure_sealevel;temperature;humidity
70445;BME280;57902;49.638;11.070;2024-03-02T00:01:19;97187.47;;;5.37;100.00
70445;BME280;57902;49.638;11.070;2024-03-02T00:03:46;97184.88;;;5.38;100.00
70445;BME280;57902;49.638;11.070;2024-03-02T00:06:12;97181.41;;;5.41;100.00
70445;BME280;57902;49.638;11.070;2024-03-02T00:08:39;97188.31;;;5.37;100.00
70445;BME280;57902;49.638;11.070;2024-03-02T00:11:07;97178.97;;;5.36;100.00
70445;BME280;57902;49.638;11.070;2024-03-02T00:13:33;97183.91;;;5.42;100.00
70445;BME280;57902;49.638;11.070;2024-03-02T00:16:01;97181.44;;;5.39;100.00
70445;BME280;57902;49.638;11.070;2024-03-02T00:18:32;97178.13;;;5.36;100.00
70445;BME280;57902;49.638;11.070;2024-03-02T00:21:01;97180.53;;;5.42;100.00
70445;BME280;57902;49.638;11.070;2024-03-02T00:23:33;97173.66;;;5.44;100.00
70445;BME280;57902;49.638;11.070;2024-03-02T00:26:01;97180.41;;;5.47;100.00
70445;BME280;57902;49.638;11.070;2024-03-02T00:28:33;97176.06;;;5.49;100.00
70445;BME280;57902;49.638;11.070;2024-03-02T00:31:13;97181.28;;;5.46;100.00
70445;BME280;57902;49.638;11.070;2024-03-02T00:33:44;97174.34;;;5.51;100.00
70445;BME280;57902;49.638;11.070;2024-03-02T00:36:26;97172.53;;;5.54;100.00
70445;BME280;57902;49.638;11.070;2024-03-02T00:38:54;97172.75;;;5.47;100.00
70445;BME280;57902;49.638;11.070;2024-03-02T00:41:27;97172.75;;;5.47;100.00
70445;BME280;57902;49.638;11.070;2024-03-02T00:44:01;97176.00;;;5.52;100.00
70445;BME280;57902;49.638;11.070;2024-03-02T00:46:38;97174.47;;;5.44;100.00
70445;BME280;57902;49.638;11.070;2024-03-02T00:49:15;97180.41;;;5.47;100.00
70445;BME280;57902;49.638;11.070;2024-03-02T00:51:46;97175.34;;;5.45;100.00
70445;BME280;57902;49.638;11.070;2024-03-02T00:54:13;97170.22;;;5.45;100.00
70445;BME280;57902;49.638;11.070;2024-03-02T00:56:41;97184.66;;;5.46;100.00
70445;BME280;57902;49.638;11.070;2024-03-02T00:59:10;97187.94;;;5.51;100.00
70445;BME280;57902;49.638;11.070;2024-03-02T01:01:37;97187.16;;;5.49;100.00
70445;BME280;57902;49.638;11.070;2024-03-02T01:04:04;97186.22;;;5.52;100.00
70445;BME280;57902;49.638;11.070;2024-03-02T01:06:30;97190.53;;;5.50;100.00
70445;BME280;57902;49.638;11.070;2024-03-02T01:08:57;97187.06;;;5.52;100.00
70445;BME280;57902;49.638;11.070;2024-03-02T01:11:24;97192.06;;;5.57;100.00
70445;BME280;57902;49.638;11.070;2024-03-02T01:13:51;97193.88;;;5.52;100.00
70445;BME280;57902;49.638;11.070;2024-03-02T01:16:19;97198.94;;;5.53;100.00
70445;BME280;57902;49.638;11.070;2024-03-02T01:18:45;97191.25;;;5.55;100.00
70445;BME280;57902;49.638;11.070;2024-03-02T01:21:13;97192.44;;;5.74;100.00
70445;BME280;57902;49.638;11.070;2024-03-02T01:23:39;97188.41;;;5.66;100.00
70445;BME280;57902;49.638;11.070;2024-03-02T01:26:06;97189.28;;;5.65;100.00
70445;BME280;57902;49.638;11.070;2024-03-02T01:28:33;97191.75;;;5.68;100.00
70445;BME280;57902;49.638;11.070;2024-03-02T01:31:00;97193.56;;;5.64;100.00
70445;BME280;57902;49.638;11.070;2024-03-02T01:33:28;97182.38;;;5.68;100.00
70445;BME280;57902;49.638;11.070;2024-03-02T01:35:55;97187.63;;;5.62;100.00
70445;BME280;57902;49.638;11.070;2024-03-02T01:38:21;97190.28;;;5.59;100.00
70445;BME280;57902;49.638;11.070;2024-03-02T01:40:48;97186.81;;;5.61;100.00
70445;BME280;57902;49.638;11.070;2024-03-02T01:43:14;97187.03;;;5.54;100.00
70445;BME280;57902;49.638;11.070;2024-03-02T01:45:41;97187.72;;;5.59;100.00
70445;BME280;57902;49.638;11.070;2024-03-02T01:48:08;97186.16;;;5.53;100.00
70445;BME280;57902;49.638;11.070;2024-03-02T01:50:35;97182.66;;;5.57;100.00
70445;BME280;57902;49.638;11.070;2024-03-02T01:53:01;97181.31;;;5.44;100.00
70445;BME280;57902;49.638;11.070;2024-03-02T01:55:31;97184.50;;;5.52;100.00
70445;BME280;57902;49.638;11.070;2024-03-02T01:57:59;97187.28;;;5.43;100.00
70445;BME280;57902;49.638;11.070;2024-03-02T02:00:26;97184.66;;;5.48;100.00
70445;BME280;57902;49.638;11.070;2024-03-02T02:02:53;97191.59;;;5.42;100.00
70445;BME280;57902;49.638;11.070;2024-03-02T02:05:20;97188.25;;;5.40;100.00
70445;BME280;57902;49.638;11.070;2024-03-02T02:07:47;97183.03;;;5.43;100.00
70445;BME280;57902;49.638;11.070;2024-03-02T02:10:13;97191.75;;;5.36;100.00
70445;BME280;57902;49.638;11.070;2024-03-02T02:12:40;97182.41;;;5.35;100.00
70445;BME280;57902;49.638;11.070;2024-03-02T02:15:23;97183.22;;;5.37;100.00
70445;BME280;57902;49.638;11.070;2024-03-02T02:17:49;97179.81;;;5.37;100.00
70445;BME280;57902;49.638;11.070;2024-03-02T02:20:16;97184.00;;;5.39;100.00
70445;BME280;57902;49.638;11.070;2024-03-02T02:23:12;97186.47;;;5.42;100.00
70445;BME280;57902;49.638;11.070;2024-03-02T02:25:39;97186.47;;;5.42;100.00
70445;BME280;57902;49.638;11.070;2024-03-02T02:28:06;97185.72;;;5.39;100.00
70445;BME280;57902;49.638;11.070;2024-03-02T02:30:32;97190.84;;;5.39;100.00
70445;BME280;57902;49.638;11.070;2024-03-02T02:33:00;97187.63;;;5.31;100.00
70445;BME280;57902;49.638;11.070;2024-03-02T02:35:26;97198.06;;;5.23;100.00
70445;BME280;57902;49.638;11.070;2024-03-02T02:37:54;97199.09;;;5.16;100.00
70445;BME280;57902;49.638;11.070;2024-03-02T02:40:22;97192.28;;;5.15;100.00
70445;BME280;57902;49.638;11.070;2024-03-02T02:42:49;97187.16;;;5.16;100.00
70445;BME280;57902;49.638;11.070;2024-03-02T02:45:16;97189.69;;;5.16;100.00
70445;BME280;57902;49.638;11.070;2024-03-02T02:47:43;97187.16;;;5.16;100.00
70445;BME280;57902;49.638;11.070;2024-03-02T02:50:11;97195.44;;;5.26;100.00
70445;BME280;57902;49.638;11.070;2024-03-02T02:52:40;97192.66;;;5.34;100.00
70445;BME280;57902;49.638;11.070;2024-03-02T02:55:11;97190.88;;;5.37;100.00
70445;BME280;57902;49.638;11.070;2024-03-02T02:57:39;97188.31;;;5.37;100.00
70445;BME280;57902;49.638;11.070;2024-03-02T03:02:43;97180.88;;;5.61;100.00
70445;BME280;57902;49.638;11.070;2024-03-02T03:05:11;97184.22;;;5.63;100.00
70445;BME280;57902;49.638;11.070;2024-03-02T03:07:42;97185.91;;;5.64;100.00
70445;BME280;57902;49.638;11.070;2024-03-02T03:10:10;97188.41;;;5.66;100.00
70445;BME280;57902;49.638;11.070;2024-03-02T03:12:37;97194.44;;;5.63;100.00
70445;BME280;57902;49.638;11.070;2024-03-02T03:15:04;97192.06;;;5.57;100.00
70445;BME280;57902;49.638;11.070;2024-03-02T03:17:35;97191.38;;;5.50;100.00
70445;BME280;57902;49.638;11.070;2024-03-02T03:20:02;97188.72;;;5.53;100.00
70445;BME280;57902;49.638;11.070;2024-03-02T03:22:30;97190.50;;;5.51;100.00
70445;BME280;57902;49.638;11.070;2024-03-02T03:24:58;97191.25;;;5.55;100.00
70445;BME280;57902;49.638;11.070;2024-03-02T03:27:25;97195.53;;;5.54;100.00
70445;BME280;57902;49.638;11.070;2024-03-02T03:29:51;97189.00;;;5.74;100.00
70445;BME280;57902;49.638;11.070;2024-03-02T03:32:18;97183.25;;;5.67;100.00
70445;BME280;57902;49.638;11.070;2024-03-02T03:34:44;97189.06;;;5.72;100.00
70445;BME280;57902;49.638;11.070;2024-03-02T03:37:11;97183.03;;;5.75;100.00
70445;BME280;57902;49.638;11.070;2024-03-02T03:39:38;97183.63;;;5.85;100.00
70445;BME280;57902;49.638;11.070;2024-03-02T03:42:05;97187.69;;;5.92;100.00
70445;BME280;57902;49.638;11.070;2024-03-02T03:44:32;97180.09;;;5.89;100.00
70445;BME280;57902;49.638;11.070;2024-03-02T03:46:58;97187.72;;;5.90;100.00
70445;BME280;57902;49.638;11.070;2024-03-02T03:49:25;97188.75;;;5.85;100.00
70445;BME280;57902;49.638;11.070;2024-03-02T03:51:51;97193.13;;;5.79;100.00
70445;BME280;57902;49.638;11.070;2024-03-02T03:54:18;97189.06;;;5.72;100.00
70445;BME280;57902;49.638;11.070;2024-03-02T03:56:45;97194.03;;;5.78;100.00
70445;BME280;57902;49.638;11.070;2024-03-02T03:59:11;97190.78;;;5.72;100.00
70445;BME280;57902;49.638;11.070;2024-03-02T04:01:38;97183.53;;;5.88;100.00
70445;BME280;57902;49.638;11.070;2024-03-02T04:04:04;97179.59;;;6.07;100.00
70445;BME280;57902;49.638;11.070;2024-03-02T04:06:31;97176.06;;;6.11;100.00
70445;BME280;57902;49.638;11.070;2024-03-02T04:08:58;97174.81;;;5.95;100.00
70445;BME280;57902;49.638;11.070;2024-03-02T04:11:25;97182.84;;;6.12;100.00
70445;BME280;57902;49.638;11.070;2024-03-02T04:13:51;97185.03;;;5.95;100.00
70445;BME280;57902;49.638;11.070;2024-03-02T04:16:20;97187.13;;;5.81;100.00
70445;BME280;57902;49.638;11.070;2024-03-02T04:18:47;97189.88;;;5.74;100.00
70445;BME280;57902;49.638;11.070;2024-03-02T04:21:13;97182.91;;;5.79;100.00
70445;BME280;57902;49.638;11.070;2024-03-02T04:23:40;97186.97;;;5.87;100.00
70445;BME280;57902;49.638;11.070;2024-03-02T04:26:06;97185.63;;;5.73;100.00
70445;BME280;57902;49.638;11.070;2024-03-02T04:28:33;97189.25;;;5.96;100.00
70445;BME280;57902;49.638;11.070;2024-03-02T04:30:59;97190.47;;;5.83;100.00
70445;BME280;57902;49.638;11.070;2024-03-02T04:33:26;97193.31;;;5.73;100.00
70445;BME280;57902;49.638;11.070;2024-03-02T04:35:52;97198.59;;;5.67;100.00
70445;BME280;57902;49.638;11.070;2024-03-02T04:38:19;97191.84;;;5.65;100.00
70445;BME280;57902;49.638;11.070;2024-03-02T04:40:45;97197.78;;;5.65;100.00
70445;BME280;57902;49.638;11.070;2024-03-02T04:43:12;97200.56;;;5.57;100.00
70445;BME280;57902;49.638;11.070;2024-03-02T04:45:42;97203.97;;;5.58;100.00
70445;BME280;57902;49.638;11.070;2024-03-02T04:48:09;97199.72;;;5.57;100.00
70445;BME280;57902;49.638;11.070;2024-03-02T04:50:35;97202.41;;;5.52;100.00
70445;BME280;57902;49.638;11.070;2024-03-02T04:53:02;97198.88;;;5.56;100.00
70445;BME280;57902;49.638;11.070;2024-03-02T04:55:29;97199.94;;;5.49;100.00
70445;BME280;57902;49.638;11.070;2024-03-02T04:57:55;97205.66;;;5.57;100.00
70445;BME280;57902;49.638;11.070;2024-03-02T05:00:22;97199.81;;;5.54;100.00
70445;BME280;57902;49.638;11.070;2024-03-02T05:02:49;97209.09;;;5.58;100.00
70445;BME280;57902;49.638;11.070;2024-03-02T05:05:16;97211.78;;;5.52;100.00
70445;BME280;57902;49.638;11.070;2024-03-02T05:07:43;97205.16;;;5.44;100.00
70445;BME280;57902;49.638;11.070;2024-03-02T05:10:10;97200.94;;;5.43;100.00
70445;BME280;57902;49.638;11.070;2024-03-02T05:12:38;97201.13;;;5.36;100.00
70445;BME280;57902;49.638;11.070;2024-03-02T05:15:13;97207.16;;;5.33;100.00
70445;BME280;57902;49.638;11.070;2024-03-02T05:17:40;97209.72;;;5.33;100.00
70445;BME280;57902;49.638;11.070;2024-03-02T05:20:11;97207.59;;;5.49;100.00
70445;BME280;57902;49.638;11.070;2024-03-02T05:22:38;97205.47;;;5.32;100.00
70445;BME280;57902;49.638;11.070;2024-03-02T05:25:06;97222.25;;;5.42;100.00
70445;BME280;57902;49.638;11.070;2024-03-02T05:27:33;97212.19;;;5.36;100.00
70445;BME280;57902;49.638;11.070;2024-03-02T05:30:00;97211.13;;;5.45;100.00
70445;BME280;57902;49.638;11.070;2024-03-02T05:32:26;97213.88;;;5.37;100.00
70445;BME280;57902;49.638;11.070;2024-03-02T05:34:53;97210.75;;;5.26;100.00
70445;BME280;57902;49.638;11.070;2024-03-02T05:37:20;97209.16;;;5.22;100.00
70445;BME280;57902;49.638;11.070;2024-03-02T05:39:46;97213.47;;;5.20;100.00
70445;BME280;57902;49.638;11.070;2024-03-02T05:42:13;97213.34;;;5.24;100.00
70445;BME280;57902;49.638;11.070;2024-03-02T05:44:39;97217.56;;;5.25;100.00
70445;BME280;57902;49.638;11.070;2024-03-02T05:47:06;97212.72;;;5.15;100.00
70445;BME280;57902;49.638;11.070;2024-03-02T05:49:35;97214.50;;;5.13;100.00
70445;BME280;57902;49.638;11.070;2024-03-02T05:52:01;97218.59;;;5.20;100.00
70445;BME280;57902;49.638;11.070;2024-03-02T05:54:29;97217.13;;;5.10;100.00
70445;BME280;57902;49.638;11.070;2024-03-02T05:56:56;97218.09;;;5.05;100.00
70445;BME280;57902;49.638;11.070;2024-03-02T05:59:22;97226.69;;;5.01;100.00
70445;BME280;57902;49.638;11.070;2024-03-02T06:01:49;97211.41;;;5.00;100.00
70445;BME280;57902;49.638;11.070;2024-03-02T06:04:18;97231.72;;;5.04;100.00
70445;BME280;57902;49.638;11.070;2024-03-02T06:06:45;97217.09;;;5.11;100.00
70445;BME280;57902;49.638;11.070;2024-03-02T06:09:11;97216.25;;;5.11;100.00
70445;BME280;57902;49.638;11.070;2024-03-02T06:11:42;97221.81;;;5.26;100.00
70445;BME280;57902;49.638;11.070;2024-03-02T06:14:09;97223.88;;;5.12;100.00
70445;BME280;57902;49.638;11.070;2024-03-02T06:16:36;97225.50;;;5.15;100.00
70445;BME280;57902;49.638;11.070;2024-03-02T06:19:02;97225.72;;;5.07;100.00
70445;BME280;57902;49.638;11.070;2024-03-02T06:21:29;97225.72;;;5.07;100.00
70445;BME280;57902;49.638;11.070;2024-03-02T06:23:56;97229.16;;;5.04;100.00
70445;BME280;57902;49.638;11.070;2024-03-02T06:26:23;97232.69;;;4.99;100.00
70445;BME280;57902;49.638;11.070;2024-03-02T06:28:51;97235.09;;;5.05;100.00
70445;BME280;57902;49.638;11.070;2024-03-02T06:31:18;97231.72;;;5.04;100.00
70445;BME280;57902;49.638;11.070;2024-03-02T06:33:44;97230.78;;;5.08;100.00
70445;BME280;57902;49.638;11.070;2024-03-02T06:36:11;97227.00;;;5.23;100.00
70445;BME280;57902;49.638;11.070;2024-03-02T06:38:38;97232.16;;;5.22;100.00
70445;BME280;57902;49.638;11.070;2024-03-02T06:41:09;97230.78;;;5.08;100.00
70445;BME280;57902;49.638;11.070;2024-03-02T06:43:35;97235.69;;;5.16;100.00
70445;BME280;57902;49.638;11.070;2024-03-02T06:46:02;97228.94;;;5.14;100.00
70445;BME280;57902;49.638;11.070;2024-03-02T06:48:29;97233.88;;;5.21;100.00
70445;BME280;57902;49.638;11.070;2024-03-02T06:50:56;97227.91;;;5.21;100.00
70445;BME280;57902;49.638;11.070;2024-03-02T06:53:26;97225.31;;;5.22;100.00
70445;BME280;57902;49.638;11.070;2024-03-02T06:55:53;97223.19;;;5.38;100.00
70445;BME280;57902;49.638;11.070;2024-03-02T06:58:20;97219.13;;;5.31;100.00
70445;BME280;57902;49.638;11.070;2024-03-02T07:00:46;97222.41;;;5.36;100.00
70445;BME280;57902;49.638;11.070;2024-03-02T07:03:14;97226.88;;;5.28;100.00
70445;BME280;57902;49.638;11.070;2024-03-02T07:05:41;97230.13;;;5.35;100.00
70445;BME280;57902;49.638;11.070;2024-03-02T07:08:07;97231.78;;;5.37;100.00
70445;BME280;57902;49.638;11.070;2024-03-02T07:10:34;97232.22;;;5.52;100.00
70445;BME280;57902;49.638;11.070;2024-03-02T07:13:00;97240.72;;;5.54;100.00
70445;BME280;57902;49.638;11.070;2024-03-02T07:15:27;97244.75;;;5.63;100.00
70445;BME280;57902;49.638;11.070;2024-03-02T07:17:54;97244.41;;;6.06;100.00
70445;BME280;57902;49.638;11.070;2024-03-02T07:20:21;97238.16;;;5.85;100.00
70445;BME280;57902;49.638;11.070;2024-03-02T07:22:47;97245.75;;;5.88;100.00
70445;BME280;57902;49.638;11.070;2024-03-02T07:25:14;97245.09;;;5.82;100.00
70445;BME280;57902;49.638;11.070;2024-03-02T07:27:44;97253.00;;;6.05;100.00
70445;BME280;57902;49.638;11.070;2024-03-02T07:30:14;97252.09;;;6.06;100.00
70445;BME280;57902;49.638;11.070;2024-03-02T07:32:42;97254.31;;;6.19;100.00
70445;BME280;57902;49.638;11.070;2024-03-02T07:35:15;97261.06;;;6.51;100.00
70445;BME280;57902;49.638;11.070;2024-03-02T07:37:42;97252.00;;;6.96;100.00
70445;BME280;57902;49.638;11.070;2024-03-02T07:40:09;97255.56;;;7.18;100.00
70445;BME280;57902;49.638;11.070;2024-03-02T07:42:40;97259.56;;;7.52;100.00
70445;BME280;57902;49.638;11.070;2024-03-02T07:45:07;97258.94;;;8.20;100.00
70445;BME280;57902;49.638;11.070;2024-03-02T07:47:34;97256.78;;;7.84;100.00
70445;BME280;57902;49.638;11.070;2024-03-02T07:50:01;97262.81;;;7.83;100.00
70445;BME280;57902;49.638;11.070;2024-03-02T07:52:28;97255.47;;;7.97;100.00
70445;BME280;57902;49.638;11.070;2024-03-02T07:54:56;97256.63;;;7.88;100.00
70445;BME280;57902;49.638;11.070;2024-03-02T07:57:22;97255.34;;;8.00;100.00
70445;BME280;57902;49.638;11.070;2024-03-02T07:59:49;97254.41;;;8.27;100.00
70445;BME280;57902;49.638;11.070;2024-03-02T08:02:16;97258.53;;;8.07;100.00
70445;BME280;57902;49.638;11.070;2024-03-02T08:04:42;97253.84;;;7.44;100.00
70445;BME280;57902;49.638;11.070;2024-03-02T08:07:09;97256.34;;;7.73;100.00
70445;BME280;57902;49.638;11.070;2024-03-02T08:09:35;97261.97;;;7.57;100.00
70445;BME280;57902;49.638;11.070;2024-03-02T08:12:02;97253.75;;;7.73;100.00
70445;BME280;57902;49.638;11.070;2024-03-02T08:14:29;97258.69;;;7.79;100.00
70445;BME280;57902;49.638;11.070;2024-03-02T08:16:56;97260.50;;;8.00;100.00
70445;BME280;57902;49.638;11.070;2024-03-02T08:19:22;97262.00;;;8.06;100.00
70445;BME280;57902;49.638;11.070;2024-03-02T08:21:49;97262.97;;;7.53;100.00
70445;BME280;57902;49.638;11.070;2024-03-02T08:24:16;97268.19;;;8.00;100.00
70445;BME280;57902;49.638;11.070;2024-03-02T08:26:43;97270.88;;;8.21;100.00
70445;BME280;57902;49.638;11.070;2024-03-02T08:29:09;97270.88;;;8.21;100.00
70445;BME280;57902;49.638;11.070;2024-03-02T08:31:36;97266.09;;;8.34;100.00
70445;BME280;57902;49.638;11.070;2024-03-02T08:34:06;97265.47;;;8.52;100.00
70445;BME280;57902;49.638;11.070;2024-03-02T08:36:33;97267.72;;;8.36;100.00
70445;BME280;57902;49.638;11.070;2024-03-02T08:38:59;97267.66;;;8.38;100.00
70445;BME280;57902;49.638;11.070;2024-03-02T08:41:26;97264.03;;;9.11;100.00
70445;BME280;57902;49.638;11.070;2024-03-02T08:43:52;97262.22;;;9.56;100.00
70445;BME280;57902;49.638;11.070;2024-03-02T08:46:19;97264.72;;;9.58;100.00
70445;BME280;57902;49.638;11.070;2024-03-02T08:48:46;97268.25;;;9.76;100.00
70445;BME280;57902;49.638;11.070;2024-03-02T08:51:12;97263.69;;;9.21;100.00
70445;BME280;57902;49.638;11.070;2024-03-02T08:53:39;97276.59;;;10.02;100.00
70445;BME280;57902;49.638;11.070;2024-03-02T08:56:06;97275.88;;;9.98;100.00
70445;BME280;57902;49.638;11.070;2024-03-02T08:58:32;97273.53;;;9.73;100.00
70445;BME280;57902;49.638;11.070;2024-03-02T09:00:59;97274.41;;;9.31;100.00
70445;BME280;57902;49.638;11.070;2024-03-02T09:03:25;97273.25;;;9.79;100.00
70445;BME280;57902;49.638;11.070;2024-03-02T09:05:52;97273.13;;;9.61;100.00
70445;BME280;57902;49.638;11.070;2024-03-02T09:08:19;97275.22;;;9.53;100.00
70445;BME280;57902;49.638;11.070;2024-03-02T09:10:45;97278.72;;;9.92;99.73
70445;BME280;57902;49.638;11.070;2024-03-02T09:13:12;97274.34;;;9.53;100.00
70445;BME280;57902;49.638;11.070;2024-03-02T09:15:39;97277.03;;;9.29;100.00
70445;BME280;57902;49.638;11.070;2024-03-02T09:18:06;97270.69;;;9.38;100.00
70445;BME280;57902;49.638;11.070;2024-03-02T09:20:33;97264.78;;;9.56;100.00
70445;BME280;57902;49.638;11.070;2024-03-02T09:23:00;97263.25;;;9.52;100.00
70445;BME280;57902;49.638;11.070;2024-03-02T09:25:26;97261.13;;;9.83;99.89
70445;BME280;57902;49.638;11.070;2024-03-02T09:27:53;97262.03;;;10.01;99.18
70445;BME280;57902;49.638;11.070;2024-03-02T09:30:19;97258.19;;;9.90;100.00
70445;BME280;57902;49.638;11.070;2024-03-02T09:32:46;97257.16;;;9.94;100.00
70445;BME280;57902;49.638;11.070;2024-03-02T09:35:15;97256.88;;;9.61;100.00
70445;BME280;57902;49.638;11.070;2024-03-02T09:37:42;97260.16;;;9.85;99.41
70445;BME280;57902;49.638;11.070;2024-03-02T09:40:09;97270.91;;;10.14;96.93
70445;BME280;57902;49.638;11.070;2024-03-02T09:42:36;97255.63;;;9.90;99.18
70445;BME280;57902;49.638;11.070;2024-03-02T09:45:03;97265.53;;;9.79;100.00
70445;BME280;57902;49.638;11.070;2024-03-02T09:47:30;97268.38;;;9.93;100.00
70445;BME280;57902;49.638;11.070;2024-03-02T09:49:56;97274.19;;;9.78;100.00
70445;BME280;57902;49.638;11.070;2024-03-02T09:52:23;97261.69;;;10.08;97.91
70445;BME280;57902;49.638;11.070;2024-03-02T09:54:49;97255.13;;;9.41;100.00
70445;BME280;57902;49.638;11.070;2024-03-02T09:57:16;97261.75;;;9.46;100.00
70445;BME280;57902;49.638;11.070;2024-03-02T09:59:43;97264.06;;;9.53;100.00
70445;BME280;57902;49.638;11.070;2024-03-02T10:02:09;97267.53;;;9.93;98.34
70445;BME280;57902;49.638;11.070;2024-03-02T10:04:36;97254.28;;;9.81;97.86
70445;BME280;57902;49.638;11.070;2024-03-02T10:07:16;97256.38;;;9.92;97.12
70445;BME280;57902;49.638;11.070;2024-03-02T10:09:45;97258.84;;;10.35;93.93
70445;BME280;57902;49.638;11.070;2024-03-02T10:12:13;97256.13;;;9.98;95.43
70445;BME280;57902;49.638;11.070;2024-03-02T10:14:40;97265.06;;;10.10;96.93
70445;BME280;57902;49.638;11.070;2024-03-02T10:17:09;97258.66;;;10.00;97.26
70445;BME280;57902;49.638;11.070;2024-03-02T10:19:36;97263.41;;;10.28;95.35
70445;BME280;57902;49.638;11.070;2024-03-02T10:22:05;97270.56;;;10.22;94.31
70445;BME280;57902;49.638;11.070;2024-03-02T10:24:37;97264.50;;;10.23;95.25
70445;BME280;57902;49.638;11.070;2024-03-02T10:29:41;97252.19;;;10.29;92.79
70445;BME280;57902;49.638;11.070;2024-03-02T10:32:09;97260.94;;;10.46;93.25
70445;BME280;57902;49.638;11.070;2024-03-02T10:34:39;97260.47;;;10.93;90.72
70445;BME280;57902;49.638;11.070;2024-03-02T10:37:11;97260.38;;;10.95;90.18
70445;BME280;57902;49.638;11.070;2024-03-02T10:39:39;97256.69;;;11.00;90.26
70445;BME280;57902;49.638;11.070;2024-03-02T10:42:07;97252.00;;;11.09;87.98
70445;BME280;57902;49.638;11.070;2024-03-02T10:44:34;97249.78;;;11.18;88.11
70445;BME280;57902;49.638;11.070;2024-03-02T10:47:03;97246.50;;;10.97;89.24
70445;BME280;57902;49.638;11.070;2024-03-02T10:49:31;97239.00;;;10.93;89.25
70445;BME280;57902;49.638;11.070;2024-03-02T10:51:58;97233.69;;;10.96;89.10
70445;BME280;57902;49.638;11.070;2024-03-02T10:54:25;97240.19;;;11.40;86.43
70445;BME280;57902;49.638;11.070;2024-03-02T10:56:53;97232.59;;;11.36;86.39
70445;BME280;57902;49.638;11.070;2024-03-02T10:59:27;97228.56;;;11.48;85.54
70445;BME280;57902;49.638;11.070;2024-03-02T11:01:57;97231.06;;;11.32;85.25
70445;BME280;57902;49.638;11.070;2024-03-02T11:04:31;97230.75;;;11.38;85.70
70445;BME280;57902;49.638;11.070;2024-03-02T11:07:06;97226.22;;;11.44;85.68
70445;BME280;57902;49.638;11.070;2024-03-02T11:09:34;97220.94;;;11.63;85.16
70445;BME280;57902;49.638;11.070;2024-03-02T11:12:16;97220.25;;;11.77;83.80
70445;BME280;57902;49.638;11.070;2024-03-02T11:14:45;97213.72;;;11.69;81.90
70445;BME280;57902;49.638;11.070;2024-03-02T11:17:14;97213.53;;;11.90;83.00
70445;BME280;57902;49.638;11.070;2024-03-02T11:19:44;97214.00;;;11.81;81.36
70445;BME280;57902;49.638;11.070;2024-03-02T11:22:15;97202.50;;;11.70;82.37
70445;BME280;57902;49.638;11.070;2024-03-02T11:24:49;97212.25;;;11.99;79.57
70445;BME280;57902;49.638;11.070;2024-03-02T11:33:00;97208.69;;;12.17;77.05
70445;BME280;57902;49.638;11.070;2024-03-02T11:35:27;97200.78;;;11.87;77.84
70445;BME280;57902;49.638;11.070;2024-03-02T11:37:56;97200.78;;;11.87;75.54
70445;BME280;57902;49.638;11.070;2024-03-02T11:40:25;97206.31;;;11.46;75.44
70445;BME280;57902;49.638;11.070;2024-03-02T11:42:52;97195.06;;;11.64;76.85
70445;BME280;57902;49.638;11.070;2024-03-02T11:47:51;97193.13;;;11.85;73.85
70445;BME280;57902;49.638;11.070;2024-03-02T11:50:33;97194.34;;;11.78;75.50
70445;BME280;57902;49.638;11.070;2024-03-02T11:53:00;97192.22;;;11.86;76.01
70445;BME280;57902;49.638;11.070;2024-03-02T11:55:28;97182.59;;;11.72;78.04
70445;BME280;57902;49.638;11.070;2024-03-02T11:57:57;97185.94;;;11.75;76.56
70445;BME280;57902;49.638;11.070;2024-03-02T12:00:25;97191.50;;;12.00;78.36
70445;BME280;57902;49.638;11.070;2024-03-02T12:03:13;97184.47;;;11.86;78.02
70445;BME280;57902;49.638;11.070;2024-03-02T12:05:39;97182.59;;;12.06;76.84
70445;BME280;57902;49.638;11.070;2024-03-02T12:08:07;97185.59;;;11.81;78.82
70445;BME280;57902;49.638;11.070;2024-03-02T12:10:34;97177.09;;;11.79;79.38
70445;BME280;57902;49.638;11.070;2024-03-02T12:13:03;97167.94;;;11.89;79.81
70445;BME280;57902;49.638;11.070;2024-03-02T12:15:32;97162.03;;;11.87;79.89
70445;BME280;57902;49.638;11.070;2024-03-02T12:18:00;97169.25;;;12.14;76.93
70445;BME280;57902;49.638;11.070;2024-03-02T12:20:28;97157.34;;;12.27;75.42
70445;BME280;57902;49.638;11.070;2024-03-02T12:22:56;97163.09;;;12.00;76.95
70445;BME280;57902;49.638;11.070;2024-03-02T12:25:24;97161.59;;;11.79;77.98
70445;BME280;57902;49.638;11.070;2024-03-02T12:27:53;97156.03;;;11.70;78.99
70445;BME280;57902;49.638;11.070;2024-03-02T12:30:21;97153.59;;;11.67;78.88
70445;BME280;57902;49.638;11.070;2024-03-02T12:32:48;97150.94;;;11.69;78.06
70445;BME280;57902;49.638;11.070;2024-03-02T12:35:15;97153.91;;;11.61;78.88
70445;BME280;57902;49.638;11.070;2024-03-02T12:37:48;97147.38;;;11.38;79.87
70445;BME280;57902;49.638;11.070;2024-03-02T12:40:17;97142.19;;;11.38;82.42
70445;BME280;57902;49.638;11.070;2024-03-02T12:42:49;97144.09;;;11.68;80.66
70445;BME280;57902;49.638;11.070;2024-03-02T12:45:16;97139.25;;;11.62;80.77
70445;BME280;57902;49.638;11.070;2024-03-02T12:47:50;97141.19;;;11.41;82.40
70445;BME280;57902;49.638;11.070;2024-03-02T12:50:17;97139.34;;;11.60;80.74
70445;BME280;57902;49.638;11.070;2024-03-02T12:52:51;97130.78;;;11.76;79.68
70445;BME280;57902;49.638;11.070;2024-03-02T12:55:18;97128.84;;;11.63;80.28
70445;BME280;57902;49.638;11.070;2024-03-02T12:57:45;97128.91;;;11.46;82.97
70445;BME280;57902;49.638;11.070;2024-03-02T13:00:18;97119.06;;;11.36;82.47
70445;BME280;57902;49.638;11.070;2024-03-02T13:02:45;97129.09;;;11.25;81.88
70445;BME280;57902;49.638;11.070;2024-03-02T13:05:12;97116.50;;;11.19;82.89
70445;BME280;57902;49.638;11.070;2024-03-02T13:07:39;97123.84;;;11.27;83.92